Share

Dillon, SC

RAWS MARION 01 SC US (MMRWS1) Elev 92 ft | 34.18 °N, 79.33 °W | Change Station

Current weather conditions updated 51 minutes ago

Overcast
Overcast
60 °F
Feels Like 60 °F
N
9
Wind Variable Wind from NE
Gusts 18.0 mph
Sunrise 6:40 AM
Sunset 7:53 PM
Moon Waning Gibbous

Tomorrow is forecast to be Much Warmer than today.

Pressure 30.16 in
Visibility 10.0 miles
Clouds Overcast 6000 ft
Dew Point 43 °F
Humidity 53%
Rainfall 0.07 in
Snow Depth Not available.
UV 0 out of 16
Pollen 7.40 out of 12
Ozone Good
PM2.5 Good
Flu Activity Local Activity
METAR KBBP 210355Z AUTO 03010KT 10SM OVC060 16/02 A3016 RMK AO2

More Conditions Fewer Conditions

Pressure 30.16 in
Visibility 10.0 miles
Clouds Overcast 6000 ft
Dew Point 43 °F
Humidity 53%
Rainfall 0.07 in
Snow Depth Not available.
UV 0 out of 16
Pollen 7.40 out of 12
Ozone Good
PM2.5 Good
Flu Activity Local Activity
METAR KBBP 210355Z AUTO 03010KT 10SM OVC060 16/02 A3016 RMK AO2

More Conditions Fewer Conditions

10-Day Weather Forecast

Almanac

Astronomy

Apr. 20, 2014 Rise Set
Actual Time 6:40 AM EDT 7:53 PM EDT
Civil Twilight 6:13 AM EDT 8:19 PM EDT
Nautical Twilight 5:42 AM EDT 8:50 PM EDT
Astronomical Twilight 5:10 AM EDT 9:23 PM EDT
Moon 12:26 AM EDT (4/20) 11:03 AM EDT (4/20)
Length of Visible Light 14h 05m
Length of Day
13h 13m
Tomorrow will be 1m 59s longer.
Waning Gibbous, 63% of the Moon is Illuminated
Today
Waning Gibbous
Apr 22
Last Quarter
Apr 29
New
May 6
First Quarter
May 14
Full

Today's Extremes

State Highs State Lows

Community

  • Snowy Robin
    Snowy Robin
  • Sun Pillar and Geese
    Sun Pillar and Geese
  • Showers on the Way
    Showers on the Way
  • Easter Morning Fog
    Easter Morning Fog
  • Easter Dance
    Easter Dance

WunderPhotos

Upload Photos

1,703,546 photos uploaded!

WunderBlogs® & News

Nearby

Air Quality

  Air Quality AQ Index Pollutant
Yesterday Good
OZONE
Yesterday Good
PM2.5
Current Good
PM2.5
Current Good
OZONE
Sunday Good
OZONE
Monday Good
OZONE

Snow Depth

Station Depth Elevation
No new snow has been reported.

Coastal Water Temperatures

Place Temperature
No Stations Reporting

Earthquake Activity

City Distance Mag. Time & Date
No recent earthquake activity has been reported nearby.
Minimum magnitude displayed is 2.5.

Nearby Weather Stations

Station Location Temp. Dew Point Humidity Wind Precip. Elev Updated Type
RAWS MARION 01 SC, Marion, SC 60 °F 43 °F 53% NE  at  9 mph 0.00 in / hr 92 ft 11:07 PM EDT MADIS
Cottingham Creek, Bennettsville, SC 59.3 °F 47 °F 64% NNE  at  1.0 mph 0.00 in / hr 143 ft 11:55 PM EDT Rapid Fire
RL Fogle, Nichols, SC 57.7 °F 46 °F 64% NNE  at  0.0 mph 0.00 in / hr 75 ft 11:58 PM EDT Rapid Fire
Mechanicsville, Darlington, SC 59.4 °F 49 °F 68% North  at  3.0 mph 0.00 in / hr 144 ft 11:58 PM EDT Rapid Fire

Show More Stations Show Fewer Stations

What do you think?

We're not finished. Please let us know what you like, what you don't like, and what you are still missing.